Time;durP1;ratioP1;P1;durP2;ratioP2;P2;SDS_P1;SDS_P2;PMS_P1;PMS_P2;Temp;Humidity;BMP_temperature;BMP_pressure;BME280_temperature;BME280_humidity;BME280_pressure;Samples;Min_cycle;Max_cycle;Signal;HPM_P1;HPM_P2
2023/01/25 00:02:10;;;;;;;20.42;16.33;;;6.20;62.90;;;;;;5034534;28;20552;-43
2023/01/25 00:04:37;;;;;;;23.45;17.98;;;6.20;62.90;;;;;;5039528;28;20045;-43
2023/01/25 00:07:04;;;;;;;23.90;18.15;;;6.20;62.90;;;;;;5044283;28;20057;-46
2023/01/25 00:09:35;;;;;;;22.10;17.25;;;6.20;63.00;;;;;;5044221;28;20537;-47
2023/01/25 00:12:09;;;;;;;20.42;16.23;;;6.20;62.90;;;;;;5041087;28;20042;-44
2023/01/25 00:14:36;;;;;;;23.33;16.92;;;6.20;63.00;;;;;;5039355;28;20042;-45
2023/01/25 00:17:07;;;;;;;21.33;17.23;;;6.20;63.00;;;;;;5039383;28;20049;-45
2023/01/25 00:19:35;;;;;;;24.55;17.90;;;6.20;63.10;;;;;;5038531;28;20400;-47
2023/01/25 00:22:02;;;;;;;26.02;19.05;;;6.20;63.10;;;;;;5033875;28;20050;-45
2023/01/25 00:24:29;;;;;;;25.42;17.92;;;6.20;63.10;;;;;;5030384;28;20041;-47
2023/01/25 00:26:55;;;;;;;25.83;19.42;;;6.20;63.10;;;;;;5036898;28;20049;-45
2023/01/25 00:29:27;;;;;;;23.98;18.23;;;6.20;63.10;;;;;;5032200;28;20075;-46
2023/01/25 00:32:13;;;;;;;24.30;18.15;;;6.20;63.10;;;;;;5043096;28;20048;-43
2023/01/25 00:34:50;;;;;;;25.90;18.02;;;6.20;63.00;;;;;;5031598;28;20047;-45
2023/01/25 00:37:35;;;;;;;22.80;16.88;;;6.20;63.00;;;;;;5033843;28;20056;-45
2023/01/25 00:40:01;;;;;;;25.38;17.75;;;6.20;63.10;;;;;;5020975;28;20041;-43
2023/01/25 00:42:33;;;;;;;24.83;17.90;;;6.20;63.20;;;;;;5020205;28;20049;-46
2023/01/25 00:44:59;;;;;;;27.58;19.85;;;6.20;63.30;;;;;;5018381;28;20513;-46
2023/01/25 00:47:26;;;;;;;25.30;19.15;;;6.10;63.30;;;;;;5033092;28;20137;-45
2023/01/25 00:49:53;;;;;;;23.98;18.02;;;6.20;64.00;;;;;;5031529;28;20454;-46
2023/01/25 00:52:22;;;;;;;26.15;18.08;;;6.20;63.30;;;;;;5013078;28;20144;-45
2023/01/25 00:54:48;;;;;;;25.63;18.83;;;6.20;63.30;;;;;;5016205;28;20045;-46
2023/01/25 00:57:17;;;;;;;23.92;18.33;;;6.10;63.20;;;;;;5038764;28;20045;-44
2023/01/25 00:59:47;;;;;;;22.95;18.27;;;6.20;63.30;;;;;;5018379;28;20545;-46
2023/01/25 01:02:13;;;;;;;24.63;18.25;;;6.20;63.20;;;;;;5024062;28;20056;-44
2023/01/25 01:04:42;;;;;;;24.80;18.75;;;6.10;63.20;;;;;;5018197;28;20053;-49
2023/01/25 01:07:12;;;;;;;24.58;18.42;;;6.20;63.20;;;;;;5034527;28;20045;-45
2023/01/25 01:09:46;;;;;;;24.85;18.80;;;6.20;63.20;;;;;;5017638;28;20457;-47
2023/01/25 01:12:15;;;;;;;24.40;18.15;;;6.10;63.20;;;;;;5021279;28;20076;-44
2023/01/25 01:14:41;;;;;;;25.00;19.67;;;6.10;63.10;;;;;;5044553;28;20575;-45
2023/01/25 01:17:13;;;;;;;26.92;18.63;;;6.10;63.10;;;;;;5015935;28;20168;-49
2023/01/25 01:19:40;;;;;;;24.25;18.27;;;6.10;63.20;;;;;;5037567;28;20120;-44
2023/01/25 01:22:09;;;;;;;24.77;18.95;;;6.10;63.20;;;;;;5038051;28;20124;-44
2023/01/25 01:24:38;;;;;;;24.20;18.43;;;6.10;63.30;;;;;;5036310;28;20044;-45
2023/01/25 01:27:07;;;;;;;27.17;20.02;;;6.20;63.40;;;;;;5036748;28;20052;-45
2023/01/25 01:29:38;;;;;;;26.33;18.40;;;6.10;64.00;;;;;;5032697;28;20052;-46
2023/01/25 01:32:06;;;;;;;24.48;19.50;;;6.10;63.40;;;;;;5045526;28;20037;-45
2023/01/25 01:34:47;;;;;;;27.15;19.77;;;6.20;63.40;;;;;;5018019;28;20045;-45
2023/01/25 01:37:14;;;;;;;26.45;19.40;;;6.20;63.40;;;;;;5048330;28;20041;-46
2023/01/25 01:39:48;;;;;;;24.77;18.00;;;6.10;63.40;;;;;;5038258;28;20040;-48
2023/01/25 01:42:15;;;;;;;24.08;18.05;;;6.20;63.40;;;;;;5027539;28;20108;-44
2023/01/25 01:44:53;;;;;;;23.33;17.88;;;6.10;63.30;;;;;;5026762;28;20046;-45
2023/01/25 01:47:27;;;;;;;26.08;18.48;;;6.20;63.20;;;;;;5028498;28;20557;-44
2023/01/25 01:50:22;;;;;;;24.30;18.40;;;6.10;63.20;;;;;;5020137;28;20048;-47
2023/01/25 01:52:52;;;;;;;25.92;18.83;;;6.20;63.20;;;;;;5031173;28;20048;-43
2023/01/25 01:55:23;;;;;;;26.23;18.30;;;6.10;63.30;;;;;;5029784;28;20045;-48
2023/01/25 01:57:57;;;;;;;26.70;19.25;;;6.10;63.30;;;;;;5025673;28;20044;-47
2023/01/25 02:00:35;;;;;;;27.77;19.92;;;6.10;63.30;;;;;;5028625;28;20053;-48
2023/01/25 02:03:13;;;;;;;27.20;19.75;;;6.10;63.30;;;;;;5027571;28;20080;-48
2023/01/25 02:06:06;;;;;;;31.88;22.17;;;6.10;63.40;;;;;;5026020;28;20080;-43
2023/01/25 02:08:35;;;;;;;30.15;21.58;;;6.10;63.30;;;;;;5020021;28;20062;-46
2023/01/25 02:11:03;;;;;;;31.17;21.10;;;6.10;63.40;;;;;;5010376;28;20453;-46
2023/01/25 02:13:40;;;;;;;28.48;20.48;;;6.10;63.40;;;;;;5040342;28;20033;-47
2023/01/25 02:16:17;;;;;;;27.35;19.88;;;6.10;63.40;;;;;;5047140;28;20041;-45
2023/01/25 02:18:57;;;;;;;28.83;20.98;;;6.10;63.40;;;;;;5017434;28;20072;-49
2023/01/25 02:21:24;;;;;;;28.95;20.42;;;6.10;63.40;;;;;;5020233;28;20597;-46
2023/01/25 02:24:02;;;;;;;29.73;21.02;;;6.10;63.50;;;;;;5026960;28;20124;-49
2023/01/25 02:26:30;;;;;;;28.92;21.13;;;6.10;63.50;;;;;;5029515;28;20136;-44
2023/01/25 02:29:02;;;;;;;29.80;21.23;;;6.10;63.60;;;;;;5036589;28;20091;-44
2023/01/25 02:31:32;;;;;;;27.65;21.00;;;6.10;63.60;;;;;;5023610;28;20509;-47
2023/01/25 02:33:59;;;;;;;28.52;20.45;;;6.10;63.60;;;;;;5026502;28;20048;-48
2023/01/25 02:36:37;;;;;;;29.02;20.63;;;6.00;63.60;;;;;;5030499;28;20049;-48
2023/01/25 02:39:16;;;;;;;27.05;19.67;;;6.10;63.60;;;;;;5014802;28;20046;-45
2023/01/25 02:41:49;;;;;;;29.38;20.45;;;6.10;63.50;;;;;;5023678;28;20041;-43
2023/01/25 02:44:30;;;;;;;25.08;18.45;;;6.00;63.50;;;;;;5030203;28;20045;-47
2023/01/25 02:47:02;;;;;;;30.20;20.23;;;6.00;63.50;;;;;;5043003;28;20068;-45
2023/01/25 02:49:29;;;;;;;27.10;19.88;;;6.10;63.60;;;;;;5027280;28;20132;-45
2023/01/25 02:51:59;;;;;;;28.20;20.58;;;6.10;63.70;;;;;;5030901;28;20123;-45
2023/01/25 02:54:32;;;;;;;25.55;18.17;;;6.00;63.70;;;;;;5040432;28;20037;-48
2023/01/25 02:57:02;;;;;;;25.35;18.77;;;6.00;63.60;;;;;;5014635;28;20609;-43
2023/01/25 02:59:40;;;;;;;26.30;18.17;;;6.00;63.50;;;;;;5027884;28;20045;-43
2023/01/25 03:02:07;;;;;;;27.60;19.48;;;6.00;63.60;;;;;;5040342;28;20453;-46
2023/01/25 03:04:34;;;;;;;29.48;21.70;;;6.00;63.60;;;;;;5029667;28;20524;-44
2023/01/25 03:07:03;;;;;;;27.13;19.90;;;6.00;63.50;;;;;;5028435;28;20071;-46
2023/01/25 03:09:30;;;;;;;29.23;21.45;;;6.00;63.60;;;;;;5029903;28;20076;-47
2023/01/25 03:11:59;;;;;;;30.98;22.48;;;6.00;63.60;;;;;;5030435;28;20037;-44
2023/01/25 03:14:36;;;;;;;34.42;23.88;;;6.00;63.60;;;;;;5024193;28;20714;-46
2023/01/25 03:17:07;;;;;;;30.92;22.17;;;6.00;63.50;;;;;;5027434;28;20049;-45
2023/01/25 03:19:34;;;;;;;28.48;21.45;;;5.90;63.60;;;;;;5030454;28;20091;-47
2023/01/25 03:22:01;;;;;;;30.55;22.08;;;5.90;63.50;;;;;;5027764;28;20041;-44
2023/01/25 03:24:29;;;;;;;30.15;22.33;;;5.90;63.50;;;;;;5045269;28;20564;-46
2023/01/25 03:27:13;;;;;;;29.77;22.77;;;5.90;63.60;;;;;;5026099;28;20512;-44
2023/01/25 03:29:44;;;;;;;29.02;21.45;;;6.00;63.70;;;;;;5031526;28;20726;-43
2023/01/25 03:32:23;;;;;;;28.85;20.98;;;5.90;63.70;;;;;;5018218;28;20045;-44
2023/01/25 03:34:51;;;;;;;28.50;20.85;;;5.90;63.70;;;;;;5030286;28;20386;-47
2023/01/25 03:37:30;;;;;;;30.55;20.75;;;5.90;63.80;;;;;;5026572;28;20079;-45
2023/01/25 03:39:59;;;;;;;25.73;19.48;;;5.90;63.80;;;;;;5034491;28;20033;-46
2023/01/25 03:42:32;;;;;;;28.27;19.50;;;5.90;63.80;;;;;;5000295;28;20068;-46
2023/01/25 03:44:59;;;;;;;28.00;20.08;;;5.90;63.80;;;;;;5037343;28;20454;-47
2023/01/25 03:47:26;;;;;;;27.17;20.02;;;5.90;63.80;;;;;;5033003;28;20051;-47
2023/01/25 03:49:53;;;;;;;30.73;21.20;;;5.90;63.90;;;;;;5054303;28;20417;-44
2023/01/25 03:52:58;;;;;;;28.55;20.75;;;5.90;63.80;;;;;;5031208;28;20041;-47
2023/01/25 03:55:32;;;;;;;26.77;19.55;;;5.90;63.80;;;;;;5015372;28;20061;-48
2023/01/25 03:58:01;;;;;;;28.55;20.85;;;5.90;63.70;;;;;;5020435;28;20137;-45
2023/01/25 04:00:28;;;;;;;26.77;21.05;;;5.90;63.70;;;;;;5032758;28;20041;-45
2023/01/25 04:03:00;;;;;;;29.10;21.23;;;5.90;63.70;;;;;;5027932;28;20047;-48
2023/01/25 04:05:27;;;;;;;30.63;22.02;;;5.90;63.80;;;;;;5026716;28;20069;-47
2023/01/25 04:07:56;;;;;;;31.90;23.20;;;5.90;63.80;;;;;;5030007;28;20062;-50
2023/01/25 04:10:34;;;;;;;33.60;23.08;;;5.90;63.80;;;;;;5018668;28;20421;-47
2023/01/25 04:13:00;;;;;;;32.05;23.20;;;5.90;63.80;;;;;;5027248;28;20041;-45
2023/01/25 04:15:27;;;;;;;33.17;23.75;;;5.90;63.80;;;;;;5032272;28;20041;-49
2023/01/25 04:17:59;;;;;;;32.70;23.35;;;5.90;63.70;;;;;;5030820;28;20068;-44
2023/01/25 04:20:32;;;;;;;32.45;23.10;;;5.90;63.70;;;;;;5012382;28;20056;-48
2023/01/25 04:23:01;;;;;;;32.58;23.10;;;5.90;63.70;;;;;;5044835;28;20048;-49
2023/01/25 04:25:35;;;;;;;30.25;21.63;;;5.90;63.70;;;;;;5032920;28;20076;-47
2023/01/25 04:28:06;;;;;;;28.77;20.17;;;5.90;63.70;;;;;;5049551;28;20037;-49
2023/01/25 04:30:37;;;;;;;27.13;19.77;;;5.90;63.80;;;;;;5032222;28;20057;-47
2023/01/25 04:33:07;;;;;;;30.25;20.55;;;5.90;63.90;;;;;;5025370;28;20048;-45
2023/01/25 04:35:40;;;;;;;29.05;19.27;;;5.90;63.90;;;;;;5051394;28;20041;-48
2023/01/25 04:38:09;;;;;;;29.70;21.08;;;5.80;63.90;;;;;;5031571;28;20552;-49
2023/01/25 04:40:42;;;;;;;29.63;21.02;;;5.80;64.00;;;;;;5023702;28;20405;-48
2023/01/25 04:43:18;;;;;;;27.13;20.20;;;5.80;64.10;;;;;;5026049;28;20074;-45
2023/01/25 04:45:45;;;;;;;29.77;21.60;;;5.80;64.00;;;;;;5022661;28;20055;-46
2023/01/25 04:48:20;;;;;;;32.22;23.15;;;5.80;64.40;;;;;;5019236;28;20087;-49
2023/01/25 04:50:55;;;;;;;32.58;21.85;;;5.80;63.90;;;;;;5032917;28;20055;-49
2023/01/25 04:53:25;;;;;;;31.15;22.92;;;5.80;64.00;;;;;;5022195;28;20103;-44
2023/01/25 04:55:54;;;;;;;30.00;22.15;;;5.80;64.00;;;;;;5030464;28;20088;-48
2023/01/25 04:58:28;;;;;;;33.67;22.98;;;5.80;64.00;;;;;;5028556;28;20491;-48
2023/01/25 05:01:00;;;;;;;32.45;21.83;;;5.80;64.00;;;;;;5044263;28;20169;-48
2023/01/25 05:03:30;;;;;;;29.20;21.98;;;5.80;64.10;;;;;;5030461;28;20547;-48
2023/01/25 05:05:59;;;;;;;33.13;23.48;;;5.80;64.10;;;;;;5030131;28;20053;-49
2023/01/25 05:08:29;;;;;;;;;;;5.80;64.20;;;;;;5023506;28;20132;-46
2023/01/25 05:11:04;;;;;;;;;;;5.90;64.10;;;;;;5030727;28;19921;-49
2023/01/25 05:13:39;;;;;;;28.23;17.83;;;5.90;64.10;;;;;;5047555;28;19924;-44
2023/01/25 05:16:14;;;;;;;32.20;19.73;;;5.90;63.90;;;;;;5024652;28;20106;-46
2023/01/25 05:18:41;;;;;;;28.67;19.38;;;5.90;63.90;;;;;;5024483;28;20440;-44
2023/01/25 05:24:05;;;;;;;29.33;20.42;;;5.80;64.00;;;;;;5020158;28;20498;-47
2023/01/25 05:29:18;;;;;;;27.55;18.80;;;5.80;64.20;;;;;;5044311;28;20041;-51
2023/01/25 05:31:51;;;;;;;27.08;17.70;;;5.80;64.30;;;;;;5036168;28;20040;-45
2023/01/25 05:34:21;;;;;;;25.75;17.45;;;5.80;64.30;;;;;;5030368;28;20043;-49
2023/01/25 05:36:48;;;;;;;26.63;18.08;;;5.80;64.40;;;;;;5027167;28;20041;-45
2023/01/25 05:39:15;;;;;;;27.00;17.27;;;5.80;64.40;;;;;;5024376;28;20045;-44
2023/01/25 05:41:45;;;;;;;24.55;18.10;;;5.80;64.40;;;;;;5024491;28;20076;-47
2023/01/25 05:44:12;;;;;;;29.27;20.13;;;5.80;64.40;;;;;;5027037;28;20049;-45
2023/01/25 05:46:43;;;;;;;26.75;19.30;;;5.80;64.40;;;;;;5027434;28;20052;-50
2023/01/25 05:49:10;;;;;;;26.33;18.73;;;5.80;64.50;;;;;;5028053;28;20517;-46
2023/01/25 05:51:38;;;;;;;26.60;19.15;;;5.80;64.50;;;;;;5023597;28;20051;-49
2023/01/25 05:54:08;;;;;;;25.00;18.08;;;5.80;64.50;;;;;;5039205;28;20102;-45
2023/01/25 05:56:35;;;;;;;26.80;18.60;;;5.80;64.50;;;;;;5028720;28;20073;-48
2023/01/25 05:59:05;;;;;;;28.27;18.73;;;5.80;64.50;;;;;;5014441;28;20047;-49
2023/01/25 06:01:32;;;;;;;27.30;18.95;;;5.80;64.60;;;;;;5025077;28;20123;-47
2023/01/25 06:03:59;;;;;;;27.33;18.85;;;5.80;64.50;;;;;;5025544;28;20033;-47
2023/01/25 06:06:25;;;;;;;29.33;19.92;;;5.80;64.40;;;;;;5024162;28;20052;-49
2023/01/25 06:08:52;;;;;;;28.38;19.73;;;5.80;64.40;;;;;;5027108;28;20140;-49
2023/01/25 06:11:21;;;;;;;28.42;19.00;;;5.80;64.40;;;;;;5030569;28;20049;-48
2023/01/25 06:13:50;;;;;;;29.00;19.00;;;5.80;64.50;;;;;;5009862;28;20048;-47
2023/01/25 06:16:17;;;;;;;30.33;20.15;;;5.80;64.50;;;;;;5021887;28;20046;-48
2023/01/25 06:19:05;;;;;;;28.50;20.20;;;5.80;64.60;;;;;;5046212;28;20115;-47
2023/01/25 06:21:44;;;;;;;26.08;17.90;;;5.80;64.50;;;;;;5015228;28;20047;-44
2023/01/25 06:24:11;;;;;;;27.05;18.27;;;5.80;64.50;;;;;;5035362;28;20502;-46
2023/01/25 06:26:40;;;;;;;30.38;20.67;;;5.80;65.20;;;;;;5047024;28;20110;-47
2023/01/25 06:29:07;;;;;;;33.05;23.40;;;5.80;64.50;;;;;;5047765;28;20420;-47
2023/01/25 06:31:33;;;;;;;30.80;21.90;;;5.80;64.60;;;;;;5045822;28;20098;-48
2023/01/25 06:34:03;;;;;;;29.75;20.25;;;5.80;64.60;;;;;;5038016;28;20119;-49
2023/01/25 06:36:30;;;;;;;27.98;18.77;;;5.80;64.60;;;;;;5022175;28;20056;-47
2023/01/25 06:38:57;;;;;;;26.02;17.85;;;5.80;64.60;;;;;;5040458;28;20041;-49
2023/01/25 06:41:24;;;;;;;22.08;16.33;;;5.70;64.60;;;;;;5037959;28;20112;-46
2023/01/25 06:43:51;;;;;;;24.30;16.73;;;5.70;64.60;;;;;;5043512;28;20114;-45
2023/01/25 06:46:19;;;;;;;28.17;18.35;;;5.70;64.60;;;;;;5025706;28;20037;-44
2023/01/25 06:48:46;;;;;;;29.65;19.23;;;5.70;64.70;;;;;;5047791;28;20048;-45
2023/01/25 06:51:14;;;;;;;24.02;17.45;;;5.70;64.80;;;;;;5046448;28;20045;-47
2023/01/25 06:53:46;;;;;;;25.85;18.17;;;5.70;64.90;;;;;;5039115;28;20757;-50
2023/01/25 06:56:20;;;;;;;25.80;17.95;;;5.70;64.90;;;;;;5047450;28;20041;-49
2023/01/25 06:58:48;;;;;;;29.38;19.38;;;5.70;65.00;;;;;;5052359;28;20043;-46
2023/01/25 07:01:18;;;;;;;25.98;17.75;;;5.70;65.00;;;;;;5042075;28;20036;-47
2023/01/25 07:03:50;;;;;;;30.08;19.10;;;5.70;65.00;;;;;;5047449;28;20262;-49
2023/01/25 07:06:17;;;;;;;26.95;18.35;;;5.70;65.10;;;;;;5044693;28;20120;-48
2023/01/25 07:08:44;;;;;;;26.65;17.33;;;5.70;65.10;;;;;;5032080;28;20762;-45
2023/01/25 07:11:12;;;;;;;26.90;17.35;;;5.70;65.10;;;;;;5050903;28;20116;-47
2023/01/25 07:13:46;;;;;;;25.33;18.05;;;5.70;65.00;;;;;;5052780;28;20116;-44
2023/01/25 07:16:18;;;;;;;25.38;17.17;;;5.70;65.10;;;;;;5046858;28;20029;-48
2023/01/25 07:18:45;;;;;;;27.10;18.27;;;5.70;65.20;;;;;;5042529;28;20100;-47
2023/01/25 07:21:19;;;;;;;25.30;18.13;;;5.70;65.10;;;;;;5036301;28;20048;-48
2023/01/25 07:23:46;;;;;;;29.15;17.83;;;5.70;65.10;;;;;;5051294;28;20049;-45
2023/01/25 07:26:24;;;;;;;28.38;19.70;;;5.70;65.10;;;;;;5051394;28;20108;-50
2023/01/25 07:28:52;;;;;;;28.35;18.33;;;5.70;65.20;;;;;;5045098;28;20045;-47
2023/01/25 07:31:19;;;;;;;26.20;17.27;;;5.80;65.20;;;;;;5051442;28;20041;-45
2023/01/25 07:33:48;;;;;;;26.02;17.98;;;5.70;65.20;;;;;;5051780;28;20048;-47
2023/01/25 07:36:15;;;;;;;27.08;17.67;;;5.70;65.20;;;;;;5047366;28;20091;-44
2023/01/25 07:38:42;;;;;;;28.73;19.52;;;5.80;65.20;;;;;;5038986;28;20044;-48
2023/01/25 07:41:09;;;;;;;26.08;19.10;;;5.70;65.20;;;;;;5051031;28;20071;-47
2023/01/25 07:43:36;;;;;;;24.23;17.05;;;5.70;65.20;;;;;;5049761;28;20049;-48
2023/01/25 07:46:05;;;;;;;28.30;18.65;;;5.70;65.20;;;;;;5024244;28;20041;-49
2023/01/25 07:48:34;;;;;;;26.17;17.50;;;5.70;65.20;;;;;;5044741;28;20421;-48
2023/01/25 07:51:11;;;;;;;26.23;18.08;;;5.70;65.10;;;;;;5051644;28;20043;-49
2023/01/25 07:53:42;;;;;;;25.80;17.90;;;5.70;65.00;;;;;;5043928;28;20037;-48
2023/01/25 07:56:10;;;;;;;25.25;16.90;;;5.70;65.00;;;;;;5035728;28;20037;-47
2023/01/25 07:58:37;;;;;;;25.08;16.65;;;5.70;65.00;;;;;;5039850;28;20038;-48
2023/01/25 08:01:13;;;;;;;27.70;17.42;;;5.70;65.00;;;;;;5051002;28;20112;-46
2023/01/25 08:03:40;;;;;;;32.15;18.65;;;5.70;65.00;;;;;;5050994;28;20047;-48
2023/01/25 08:06:07;;;;;;;25.58;17.50;;;5.70;65.00;;;;;;5047954;28;20049;-47
2023/01/25 08:08:40;;;;;;;24.55;17.80;;;5.70;65.10;;;;;;5035013;28;20045;-47
2023/01/25 08:11:11;;;;;;;26.38;17.50;;;5.70;65.10;;;;;;5058201;28;20379;-47
2023/01/25 08:13:45;;;;;;;24.90;17.27;;;5.70;65.20;;;;;;5051160;28;20041;-49
2023/01/25 08:16:13;;;;;;;28.55;17.85;;;5.70;65.20;;;;;;5041614;28;20103;-50
2023/01/25 08:18:39;;;;;;;26.25;18.35;;;5.70;65.20;;;;;;5043117;28;20047;-45
2023/01/25 08:21:06;;;;;;;29.48;18.42;;;5.60;65.20;;;;;;5051472;28;20119;-48
2023/01/25 08:23:35;;;;;;;24.45;17.20;;;5.70;65.20;;;;;;5050868;28;20425;-48
2023/01/25 08:26:04;;;;;;;25.50;17.55;;;5.70;65.70;;;;;;5046138;28;20041;-49
2023/01/25 08:28:31;;;;;;;24.70;17.48;;;5.60;65.00;;;;;;5040153;28;20048;-47
2023/01/25 08:31:07;;;;;;;26.25;18.00;;;5.60;65.10;;;;;;5048805;28;20127;-47
2023/01/25 08:33:34;;;;;;;27.10;18.17;;;5.60;65.20;;;;;;5047119;28;20033;-47
2023/01/25 08:36:00;;;;;;;26.58;17.77;;;5.60;65.30;;;;;;5045338;28;20060;-48
2023/01/25 08:38:29;;;;;;;28.65;18.20;;;5.60;65.40;;;;;;5035288;28;20041;-48
2023/01/25 08:41:04;;;;;;;29.05;18.23;;;5.60;65.40;;;;;;5037872;28;20036;-46
2023/01/25 08:43:31;;;;;;;28.45;18.35;;;5.60;66.10;;;;;;5041530;28;20060;-45
2023/01/25 08:45:58;;;;;;;24.55;17.13;;;5.60;65.30;;;;;;5043005;28;20927;-47
2023/01/25 08:48:25;;;;;;;25.45;16.73;;;5.60;65.30;;;;;;5042661;28;20125;-44
2023/01/25 08:50:51;;;;;;;24.80;16.95;;;5.60;65.40;;;;;;5038766;28;20048;-49
2023/01/25 08:53:18;;;;;;;29.02;18.33;;;5.60;65.40;;;;;;5020307;28;20113;-47
2023/01/25 08:55:45;;;;;;;22.88;17.98;;;5.60;65.50;;;;;;5034433;28;20039;-48
2023/01/25 08:58:18;;;;;;;27.05;18.45;;;5.60;65.60;;;;;;5042488;28;20076;-44
2023/01/25 09:00:45;;;;;;;30.48;19.30;;;5.60;65.60;;;;;;5041482;28;20044;-46
2023/01/25 09:03:12;;;;;;;31.55;18.88;;;5.60;65.60;;;;;;5044890;28;20045;-46
2023/01/25 09:05:39;;;;;;;30.70;19.02;;;5.60;65.70;;;;;;5048406;28;20041;-45
2023/01/25 09:08:07;;;;;;;23.35;17.33;;;5.60;65.60;;;;;;5045551;28;20049;-48
2023/01/25 09:10:35;;;;;;;28.90;17.65;;;5.60;65.50;;;;;;5031426;28;20049;-46
2023/01/25 09:13:02;;;;;;;27.08;17.75;;;5.60;65.60;;;;;;5040187;28;20064;-45
2023/01/25 09:15:28;;;;;;;26.23;18.48;;;5.60;65.50;;;;;;5046387;28;20041;-49
2023/01/25 09:17:57;;;;;;;28.60;18.02;;;5.60;65.50;;;;;;5032306;28;20072;-45
2023/01/25 09:20:24;;;;;;;23.80;16.83;;;5.50;65.60;;;;;;5029415;28;20076;-47
2023/01/25 09:22:51;;;;;;;27.88;18.58;;;5.50;65.70;;;;;;5052231;28;20110;-44
2023/01/25 09:25:17;;;;;;;28.70;19.05;;;5.60;65.80;;;;;;5049790;28;20037;-46
2023/01/25 09:27:47;;;;;;;27.73;18.48;;;5.60;65.80;;;;;;5047972;28;20042;-43
2023/01/25 09:30:14;;;;;;;28.88;19.02;;;5.60;65.80;;;;;;5039196;28;20052;-46
2023/01/25 09:32:49;;;;;;;29.38;19.88;;;5.60;65.90;;;;;;5017533;28;20099;-45
2023/01/25 09:35:16;;;;;;;27.58;18.80;;;5.60;65.80;;;;;;5045049;28;20497;-44
2023/01/25 09:37:43;;;;;;;27.95;20.17;;;5.60;65.80;;;;;;5045035;28;20041;-44
2023/01/25 09:40:20;;;;;;;31.67;20.15;;;5.60;65.80;;;;;;5042128;28;20456;-45
2023/01/25 09:43:17;;;;;;;35.38;24.65;;;5.70;65.90;;;;;;5047410;28;20469;-50
2023/01/25 09:45:44;;;;;;;28.13;19.77;;;5.70;66.60;;;;;;5032063;28;20087;-48
2023/01/25 09:48:26;;;;;;;31.48;19.27;;;5.70;65.90;;;;;;5040094;28;20045;-43
2023/01/25 09:51:04;;;;;;;27.15;18.17;;;5.70;65.90;;;;;;5041427;28;20045;-47
2023/01/25 09:53:35;;;;;;;29.27;18.80;;;5.70;65.80;;;;;;5040992;28;20140;-43
2023/01/25 09:56:21;;;;;;;28.13;18.50;;;5.70;65.80;;;;;;5034074;28;20111;-46
2023/01/25 09:58:51;;;;;;;29.55;18.73;;;5.70;65.80;;;;;;5040747;28;20046;-46
2023/01/25 10:01:20;;;;;;;25.95;18.42;;;5.80;65.90;;;;;;5044478;28;20120;-45
2023/01/25 10:04:11;;;;;;;30.42;18.65;;;5.70;65.80;;;;;;5029088;28;20536;-47
2023/01/25 10:06:40;;;;;;;28.67;19.02;;;5.80;65.90;;;;;;5038966;28;20041;-49
2023/01/25 10:09:33;;;;;;;31.38;18.98;;;5.80;65.80;;;;;;5033201;28;20071;-46
2023/01/25 10:12:12;;;;;;;26.42;18.33;;;5.80;65.80;;;;;;5040823;28;20124;-47
2023/01/25 10:14:39;;;;;;;26.33;17.15;;;5.80;65.70;;;;;;5030864;28;20124;-47
2023/01/25 10:17:19;;;;;;;29.50;19.55;;;5.80;65.70;;;;;;5030832;28;20048;-48
2023/01/25 10:20:19;;;;;;;28.83;19.35;;;5.80;65.60;;;;;;5031166;28;20038;-46
2023/01/25 10:22:54;;;;;;;27.98;18.23;;;5.80;65.50;;;;;;5037839;28;20045;-44
2023/01/25 10:25:45;;;;;;;28.60;18.60;;;5.80;65.60;;;;;;5041662;28;20075;-46
2023/01/25 10:28:14;;;;;;;28.50;18.95;;;5.80;65.60;;;;;;4994144;28;20057;-45
2023/01/25 10:30:52;;;;;;;29.50;18.73;;;5.80;65.60;;;;;;5032370;28;20045;-45
2023/01/25 10:33:20;;;;;;;30.75;19.23;;;5.80;65.60;;;;;;5029437;28;20072;-46
2023/01/25 10:35:49;;;;;;;32.20;20.52;;;5.80;65.50;;;;;;5032681;28;20037;-47
2023/01/25 10:38:36;;;;;;;27.00;18.63;;;5.70;65.40;;;;;;5033754;28;20120;-46
2023/01/25 10:41:27;;;;;;;26.30;19.05;;;5.80;65.30;;;;;;5039607;28;20116;-48
2023/01/25 10:46:45;;;;;;;32.78;19.38;;;5.70;65.10;;;;;;5041247;28;20047;-46
2023/01/25 10:49:27;;;;;;;30.95;19.83;;;5.70;65.10;;;;;;5039919;28;20052;-47
2023/01/25 10:51:54;;;;;;;33.95;20.40;;;5.60;65.00;;;;;;5032983;28;20050;-47
2023/01/25 10:54:23;;;;;;;32.63;21.52;;;5.60;65.10;;;;;;5037337;28;20041;-44
2023/01/25 10:56:52;;;;;;;36.03;21.67;;;5.60;65.30;;;;;;5039999;28;20570;-47
2023/01/25 10:59:24;;;;;;;33.83;22.02;;;5.50;65.40;;;;;;5039895;28;20532;-47
2023/01/25 11:01:51;;;;;;;33.22;21.60;;;5.50;65.60;;;;;;5029921;28;20476;-44
2023/01/25 11:04:38;;;;;;;38.47;23.42;;;5.50;65.70;;;;;;5028284;28;20041;-47
2023/01/25 11:07:04;;;;;;;37.10;23.65;;;5.50;65.80;;;;;;5029434;28;20048;-46
2023/01/25 11:09:38;;;;;;;37.13;23.55;;;5.60;65.90;;;;;;5036899;28;20133;-49
2023/01/25 11:12:18;;;;;;;40.30;24.45;;;5.60;65.80;;;;;;5052483;28;20059;-48
2023/01/25 11:14:50;;;;;;;39.47;25.05;;;5.60;65.60;;;;;;5043425;28;20076;-46
2023/01/25 11:17:26;;;;;;;36.97;23.38;;;5.60;65.50;;;;;;5039494;28;20052;-49
2023/01/25 11:20:16;;;;;;;37.70;22.95;;;5.60;65.50;;;;;;5015422;28;20115;-49
2023/01/25 11:22:55;;;;;;;38.63;24.92;;;5.60;65.50;;;;;;5030879;28;20037;-48
2023/01/25 11:25:29;;;;;;;46.03;27.52;;;5.60;65.30;;;;;;5039343;28;20069;-49
2023/01/25 11:28:21;;;;;;;41.15;27.63;;;5.60;65.20;;;;;;5030412;28;20041;-46
2023/01/25 11:30:50;;;;;;;41.20;26.95;;;5.60;65.20;;;;;;5028130;28;20045;-46
2023/01/25 11:33:20;;;;;;;42.95;26.98;;;5.60;65.30;;;;;;5032086;28;20672;-46
2023/01/25 11:36:05;;;;;;;46.15;27.80;;;5.60;65.40;;;;;;5041549;28;20041;-45
2023/01/25 11:38:32;;;;;;;45.90;28.02;;;5.60;65.30;;;;;;5035348;28;20066;-49
2023/01/25 11:41:19;;;;;;;50.75;30.92;;;5.50;65.40;;;;;;5032883;28;20045;-48
2023/01/25 11:43:51;;;;;;;54.53;33.00;;;5.60;65.20;;;;;;5038712;28;20379;-48
2023/01/25 11:46:49;;;;;;;50.75;30.70;;;5.50;65.10;;;;;;5036392;28;20045;-49
2023/01/25 11:49:40;;;;;;;52.58;30.75;;;5.60;64.90;;;;;;5039091;28;20041;-49
2023/01/25 11:52:43;;;;;;;45.45;29.90;;;5.50;65.00;;;;;;5032208;28;20512;-48
2023/01/25 11:55:30;;;;;;;59.00;34.22;;;5.60;65.20;;;;;;5032741;28;20530;-49
2023/01/25 11:58:02;;;;;;;58.25;34.55;;;5.50;65.10;;;;;;5034563;28;20116;-49
2023/01/25 12:00:47;;;;;;;58.85;35.17;;;5.50;65.00;;;;;;5037214;28;20043;-45
2023/01/25 12:03:38;;;;;;;58.72;35.47;;;5.50;65.10;;;;;;5020808;28;20076;-48
2023/01/25 12:06:32;;;;;;;60.00;37.40;;;5.50;65.10;;;;;;5039205;28;20041;-45
2023/01/25 12:09:12;;;;;;;62.67;37.75;;;5.50;65.20;;;;;;5043174;28;20034;-44
2023/01/25 12:11:47;;;;;;;69.97;40.10;;;5.60;65.30;;;;;;5043384;28;20049;-45
2023/01/25 12:14:28;;;;;;;65.25;39.65;;;5.60;65.30;;;;;;5036310;28;20047;-47
2023/01/25 12:17:07;;;;;;;74.63;40.85;;;5.60;65.20;;;;;;5039290;28;20037;-45
2023/01/25 12:20:08;;;;;;;62.53;37.47;;;5.60;65.20;;;;;;5040068;28;20037;-47
2023/01/25 12:22:52;;;;;;;56.13;33.33;;;5.70;65.10;;;;;;5031748;28;20045;-45
2023/01/25 12:25:43;;;;;;;57.92;33.90;;;5.70;65.10;;;;;;5039247;28;20037;-46
2023/01/25 12:28:21;;;;;;;63.25;36.40;;;5.70;65.00;;;;;;5042339;28;20077;-46
2023/01/25 12:31:32;;;;;;;63.10;36.95;;;5.70;65.00;;;;;;5038662;28;20570;-48
2023/01/25 12:34:36;;;;;;;62.88;37.30;;;5.70;64.90;;;;;;4947954;28;20055;-44
2023/01/25 12:37:31;;;;;;;61.53;36.40;;;5.70;64.80;;;;;;4969464;28;20049;-48
2023/01/25 12:40:02;;;;;;;67.05;35.67;;;5.70;64.90;;;;;;5038133;28;20059;-50
2023/01/25 12:42:54;;;;;;;57.10;32.88;;;5.70;64.90;;;;;;5050113;28;20041;-49
2023/01/25 12:45:32;;;;;;;52.83;32.97;;;5.80;65.00;;;;;;5039428;28;20666;-46
2023/01/25 12:48:19;;;;;;;54.10;32.25;;;5.70;65.00;;;;;;5038670;28;20053;-45
2023/01/25 12:50:52;;;;;;;54.13;31.15;;;5.80;65.00;;;;;;5046412;28;20041;-46
2023/01/25 12:53:26;;;;;;;54.17;31.85;;;5.70;64.90;;;;;;5026031;28;20037;-46
2023/01/25 12:55:54;;;;;;;51.58;30.98;;;5.80;64.90;;;;;;5037333;28;20045;-45
2023/01/25 12:58:27;;;;;;;49.78;30.80;;;5.80;64.90;;;;;;5040168;28;20037;-46
2023/01/25 13:01:08;;;;;;;52.65;30.52;;;5.70;64.90;;;;;;5032339;28;20045;-46
2023/01/25 13:03:50;;;;;;;53.08;30.17;;;5.80;64.90;;;;;;5030084;28;20087;-45
2023/01/25 13:06:47;;;;;;;52.17;30.08;;;5.70;64.70;;;;;;5038705;28;20508;-45
2023/01/25 13:09:23;;;;;;;51.60;29.70;;;5.80;64.70;;;;;;5042846;28;20127;-48
2023/01/25 13:11:50;;;;;;;48.95;28.85;;;5.70;64.70;;;;;;5043505;28;20051;-44
2023/01/25 13:14:16;;;;;;;49.42;29.13;;;5.70;64.60;;;;;;5042233;28;20045;-49
2023/01/25 13:16:52;;;;;;;50.53;31.27;;;5.70;64.70;;;;;;5041521;28;20211;-48